Terminal Aerodrome Forecast
Issued by NWS

Home | Current Version | Previous Version | Text Only | Print | Product List | Glossary On
Versions: 1 2 3 4 5 6 7 8 9 10 11 12
000
FTUS45 KABQ 030500
TAFGUP
TAF
KGUP 030522Z 0306/0406 VRB06KT P6SM SKC
     FM031900 23012G20KT P6SM FEW090
     FM040200 VRB06KT P6SM SCT100 SCT150=

USA.gov is the U.S. government's official web portal to all federal, state and local government web resources and services.